This is the latest recevied telemetry packets stored in our database for station/object DG7RJ-11. If no packets are shown the sender has not sent any telemetry packets the latest 1 day(s).
Telemetry packets is used to share measurements like repeteater parameters, battery voltage, radiation readings (or any other measurements).
| Time | Press* | Temp.in* | Hum* | QNH* | Temp.out* |
|---|---|---|---|---|---|
| 1836274474 | 969.4 hPa | 11.7 C deg | 87.4 % | 1025.1 hPa | 0 C deg |
| 1778014068 | 956 hPa | 15.7 C deg | 66.9 % | 1010.2 hPa | 16.8 C deg |
| 1778012253 | 955.7 hPa | 15.8 C deg | 65.6 % | 1009.8 hPa | 17.2 C deg |
| 1778010436 | 955 hPa | 16 C deg | 63.9 % | 1009 hPa | 17.8 C deg |
| 1778008625 | 954 hPa | 16 C deg | 62.8 % | 1007.9 hPa | 18.5 C deg |
| 1778003175 | 953.8 hPa | 18.1 C deg | 57.3 % | 1007.4 hPa | 21.2 C deg |
| 1778001363 | 953.6 hPa | 18.7 C deg | 57.3 % | 1007.1 hPa | 21.6 C deg |
| 1777999546 | 953.7 hPa | 19.4 C deg | 57.7 % | 1006.9 hPa | 21.9 C deg |
| 1777997752 | 953.9 hPa | 19.5 C deg | 58.1 % | 1007.2 hPa | 22.9 C deg |
| 1777995917 | 954 hPa | 20.1 C deg | 55.3 % | 1007.1 hPa | 24.1 C deg |
| 1777994099 | 953.7 hPa | 20.7 C deg | 51.8 % | 1006.7 hPa | 26.3 C deg |
| 1777992284 | 953.1 hPa | 22.9 C deg | 42 % | 1005.7 hPa | 28.6 C deg |
| 1777990471 | 952.9 hPa | 24.6 C deg | 42.3 % | 1005.2 hPa | 29.8 C deg |
| 1777988655 | 953 hPa | 24.9 C deg | 41.3 % | 1005.2 hPa | 31.2 C deg |
| 1777986842 | 953.1 hPa | 25.7 C deg | 39.8 % | 1005.2 hPa | 32.5 C deg |
| 1777985027 | 953.2 hPa | 26.4 C deg | 40.3 % | 1005.2 hPa | 33.2 C deg |
| 1777983209 | 953.3 hPa | 26.1 C deg | 40.9 % | 1005.4 hPa | 35 C deg |
| 1777981394 | 953.5 hPa | 26 C deg | 41.9 % | 1005.5 hPa | 35.1 C deg |
| 1777975948 | 954.6 hPa | 27.7 C deg | 43.2 % | 1006.4 hPa | 30 C deg |
| 1777974134 | 954.8 hPa | 26.5 C deg | 47.3 % | 1006.9 hPa | 26.3 C deg |
| 1777972318 | 955.2 hPa | 24.7 C deg | 51.4 % | 1007.6 hPa | 23.8 C deg |
| 1777970516 | 955.5 hPa | 23.3 C deg | 56.9 % | 1008.2 hPa | 21.8 C deg |
| 1777968697 | 955.8 hPa | 21.9 C deg | 62.5 % | 1008.7 hPa | 19.4 C deg |
| 1777966874 | 956 hPa | 19.6 C deg | 67.2 % | 1009.4 hPa | 16.9 C deg |
| 1777965063 | 956 hPa | 17.2 C deg | 72.8 % | 1009.9 hPa | 14.6 C deg |
*Used Equation Coefficients:
Press: 0, 1, 0
Temp.in: 0, 1, 0
Hum: 0, 1, 0
QNH: 0, 1, 0
Temp.out: 0, 1, 0
- The parameter names for the analog channels will be Value1, Value2, Value3 (up to Value5) if station has not sent a PARAM-packet that specifies the parameter names for each analog channel.
- Each analog value is a decimal number between 000 and 255 (according to APRS specifications). The receiver use the telemetry equation coefficientsto to restore the original sensor values. If no EQNS-packet with equation coefficients is sent we will show the values as is (this corresponds to the equation coefficients a=0, b=1 and c=0).
The sent equation coefficients is used in the equation: a * value2 + b * value + c. - The units for the analog values will not be shown if station has not sent a UNIT-packet specifying what unit's to use.
- The parameter names for the digital bits will be Bit1, Bit2, Bit3 (up to Bit8) if station has not sent a PARAM-packet that specifies the parameter names for each digital bit.
- All bit labels will be named "On" if station has not sent a UNIT-packet that specifies the label of each bit.
- A bit is considered to be On when the bit is 1 if station has not sent a BITS-packet that specifies another "Bit sense" (a BITS-packet specify the state of the bits that match the BIT labels)